createdAt,value
2017-06-22T00:01:59.946Z,100295.25
2017-06-22T00:04:29.000Z,100289.50
2017-06-22T00:06:58.073Z,100289.70
2017-06-22T00:09:27.144Z,100277.64
2017-06-22T00:11:57.364Z,100271.34
2017-06-22T00:14:26.387Z,100270.53
2017-06-22T00:16:55.476Z,100261.66
2017-06-22T00:19:24.531Z,100262.45
2017-06-22T00:21:53.620Z,100260.47
2017-06-22T00:24:22.675Z,100254.74
2017-06-22T00:26:52.229Z,100248.02
2017-06-22T00:29:21.309Z,100235.77
2017-06-22T00:31:50.365Z,100238.15
2017-06-22T00:34:19.486Z,100232.62
2017-06-22T00:36:48.541Z,100236.55
2017-06-22T00:39:17.607Z,100225.30
2017-06-22T00:41:47.461Z,100224.72
2017-06-22T00:44:16.712Z,100220.58
2017-06-22T00:46:45.787Z,100216.22
2017-06-22T00:49:14.887Z,100219.38
2017-06-22T00:51:43.956Z,100213.64
2017-06-22T00:54:13.044Z,100213.45
2017-06-22T00:56:42.088Z,100214.23
2017-06-22T00:59:11.182Z,100215.04
2017-06-22T01:01:40.520Z,100217.39
2017-06-22T01:04:09.589Z,100219.17
2017-06-22T01:06:38.661Z,100218.58
2017-06-22T01:09:07.740Z,100221.75
2017-06-22T01:11:36.820Z,100222.92
2017-06-22T01:14:05.865Z,100218.59
2017-06-22T01:16:34.923Z,100219.19
2017-06-22T01:19:04.028Z,100218.20
2017-06-22T01:21:33.150Z,100219.38
2017-06-22T01:24:02.226Z,100209.89
2017-06-22T01:26:31.299Z,100212.46
2017-06-22T01:29:00.503Z,100202.59
2017-06-22T01:31:29.549Z,100196.28
2017-06-22T01:33:59.384Z,100200.60
2017-06-22T01:36:28.455Z,100195.86
2017-06-22T01:38:58.288Z,100200.82
2017-06-22T01:41:27.365Z,100194.11
2017-06-22T01:43:57.195Z,100194.89
2017-06-22T01:46:26.275Z,100195.69
2017-06-22T01:48:56.093Z,100200.80
2017-06-22T01:51:25.944Z,100194.68
2017-06-22T01:53:55.035Z,100192.72
2017-06-22T01:56:24.111Z,100197.24
2017-06-22T01:58:53.169Z,100192.91
2017-06-22T02:01:22.241Z,100197.23
2017-06-22T02:03:51.505Z,100194.28
2017-06-22T02:06:20.603Z,100197.42
2017-06-22T02:08:49.656Z,100200.35
2017-06-22T02:11:19.512Z,100190.85
2017-06-22T02:13:48.576Z,100196.77
2017-06-22T02:16:18.577Z,100193.05
2017-06-22T02:18:47.647Z,100186.72
2017-06-22T02:21:16.760Z,100188.30
2017-06-22T02:23:45.791Z,100188.27
2017-06-22T02:26:14.890Z,100177.83
2017-06-22T02:28:44.262Z,100167.95
2017-06-22T02:31:13.415Z,100168.16
2017-06-22T02:33:42.484Z,100163.22
2017-06-22T02:36:11.541Z,100170.50
2017-06-22T02:38:40.646Z,100172.84
2017-06-22T02:41:09.757Z,100172.84
2017-06-22T02:43:38.824Z,100176.35
2017-06-22T02:46:07.899Z,100173.20
2017-06-22T02:48:36.965Z,100173.79
2017-06-22T02:51:06.028Z,100165.11
2017-06-22T02:53:35.856Z,100162.74
2017-06-22T02:56:05.115Z,100160.40
2017-06-22T02:58:34.197Z,100155.48
2017-06-22T03:01:03.269Z,100154.52
2017-06-22T03:03:32.449Z,100157.09
2017-06-22T03:06:01.526Z,100150.39
2017-06-22T03:08:31.356Z,100156.52
2017-06-22T03:11:00.429Z,100153.36
2017-06-22T03:13:30.301Z,100154.56
2017-06-22T03:15:59.355Z,100152.37
2017-06-22T03:18:28.404Z,100147.70
2017-06-22T03:20:57.485Z,100143.14
2017-06-22T03:23:26.544Z,100144.74
2017-06-22T03:25:55.624Z,100144.93
2017-06-22T03:28:25.484Z,100139.02
2017-06-22T03:30:54.526Z,100139.79
2017-06-22T03:33:24.349Z,100142.95
2017-06-22T03:35:53.416Z,100142.55
2017-06-22T03:38:22.776Z,100139.97
2017-06-22T03:40:51.837Z,100129.72
2017-06-22T03:43:21.677Z,100126.36
2017-06-22T03:45:50.748Z,100131.69
2017-06-22T03:48:19.815Z,100128.32
2017-06-22T03:50:48.876Z,100132.25
2017-06-22T03:53:17.956Z,100131.45
2017-06-22T03:55:47.051Z,100136.81
2017-06-22T03:58:16.136Z,100126.92
2017-06-22T04:00:45.196Z,100125.13
2017-06-22T04:03:14.515Z,100120.37
2017-06-22T04:05:43.627Z,100120.77
2017-06-22T04:08:12.735Z,100108.91
2017-06-22T04:10:41.781Z,100125.10
2017-06-22T04:13:10.885Z,100125.67
2017-06-22T04:15:39.932Z,100126.65
2017-06-22T04:18:09.001Z,100127.22
2017-06-22T04:20:38.074Z,100128.22
2017-06-22T04:23:07.162Z,100130.73
2017-06-22T04:25:36.213Z,100129.91
2017-06-22T04:28:05.323Z,100126.72
2017-06-22T04:30:34.368Z,100127.50
2017-06-22T04:33:03.492Z,100130.07
2017-06-22T04:35:32.580Z,100129.47
2017-06-22T04:38:01.624Z,100128.84
2017-06-22T04:40:30.707Z,100130.41
2017-06-22T04:42:59.814Z,100132.58
2017-06-22T04:45:28.913Z,100125.23
2017-06-22T04:47:57.964Z,100127.56
2017-06-22T04:50:27.020Z,100126.16
2017-06-22T04:52:56.106Z,100121.81
2017-06-22T04:55:25.305Z,100121.20
2017-06-22T04:57:54.384Z,100123.36
2017-06-22T05:00:23.457Z,100123.48
2017-06-22T05:02:52.536Z,100126.42
2017-06-22T05:05:21.739Z,100113.33
2017-06-22T05:07:50.807Z,100121.43
2017-06-22T05:10:19.887Z,100109.31
2017-06-22T05:12:49.083Z,100102.92
2017-06-22T05:15:18.157Z,100103.50
2017-06-22T05:17:47.235Z,100098.33
2017-06-22T05:20:16.304Z,100092.56
2017-06-22T05:22:45.367Z,100092.17
2017-06-22T05:25:14.456Z,100095.50
2017-06-22T05:27:43.516Z,100088.73
2017-06-22T05:30:12.561Z,100093.42
2017-06-22T05:32:41.636Z,100087.02
2017-06-22T05:35:10.746Z,100086.77
2017-06-22T05:37:39.796Z,100085.50
2017-06-22T05:40:08.914Z,100084.20
2017-06-22T05:42:37.957Z,100084.84
2017-06-22T05:45:07.036Z,100078.77
2017-06-22T05:47:36.120Z,100075.05
2017-06-22T05:50:05.190Z,100072.73
2017-06-22T05:52:34.286Z,100079.79
2017-06-22T05:55:03.364Z,100072.30
2017-06-22T05:57:32.408Z,100066.21
2017-06-22T06:00:01.488Z,100062.62
2017-06-22T06:02:30.576Z,100066.78
2017-06-22T06:04:59.840Z,100061.41
2017-06-22T06:07:28.916Z,100059.48
2017-06-22T06:09:57.970Z,100061.41
2017-06-22T06:12:27.058Z,100058.55
2017-06-22T06:14:56.133Z,100055.28
2017-06-22T06:17:25.179Z,100055.20
2017-06-22T06:19:54.252Z,100050.19
2017-06-22T06:22:23.346Z,100053.89
2017-06-22T06:24:52.393Z,100051.68
2017-06-22T06:27:21.482Z,100054.27
2017-06-22T06:29:50.517Z,100049.03
2017-06-22T06:32:19.585Z,100049.53
2017-06-22T06:34:48.777Z,100043.89
2017-06-22T06:37:17.844Z,100037.31
2017-06-22T06:39:46.895Z,100038.30
2017-06-22T06:42:15.985Z,100036.45
2017-06-22T06:44:45.045Z,100035.39
2017-06-22T06:47:14.156Z,100037.91
2017-06-22T06:49:43.219Z,100029.25
2017-06-22T06:52:12.297Z,100032.49
2017-06-22T06:54:41.362Z,100031.91
2017-06-22T06:57:10.421Z,100030.81
2017-06-22T06:59:39.469Z,100034.49
2017-06-22T07:02:08.542Z,100036.33
2017-06-22T07:04:37.633Z,100028.23
2017-06-22T07:07:06.736Z,100029.34
2017-06-22T07:09:35.775Z,100024.30
2017-06-22T07:12:04.831Z,100025.94
2017-06-22T07:14:33.929Z,100019.56
2017-06-22T07:17:03.019Z,100010.76
2017-06-22T07:19:32.084Z,100013.06
2017-06-22T07:22:01.168Z,100008.84
2017-06-22T07:24:30.228Z,100007.30
2017-06-22T07:26:59.303Z,100004.05
2017-06-22T07:29:28.380Z,99996.65
2017-06-22T07:31:57.449Z,100003.94
2017-06-22T07:34:26.528Z,100002.88
2017-06-22T07:36:55.590Z,99997.44
2017-06-22T07:39:24.636Z,100002.70
2017-06-22T07:41:53.683Z,100002.80
2017-06-22T07:44:22.764Z,100004.92
2017-06-22T07:46:51.812Z,100005.00
2017-06-22T07:49:20.860Z,100002.52
2017-06-22T07:51:49.945Z,100001.88
2017-06-22T07:54:19.021Z,99999.14
2017-06-22T07:56:48.057Z,99998.13
2017-06-22T07:59:17.141Z,99997.38
2017-06-22T08:01:46.425Z,99990.37
2017-06-22T08:04:15.496Z,99992.05
2017-06-22T08:06:44.551Z,99986.55
2017-06-22T08:09:13.607Z,99982.76
2017-06-22T08:11:42.675Z,99982.74
2017-06-22T08:14:11.755Z,99978.91
2017-06-22T08:16:40.795Z,99975.97
2017-06-22T08:19:09.855Z,99975.02
2017-06-22T08:21:38.892Z,99973.78
2017-06-22T08:24:08.089Z,99974.47
2017-06-22T08:26:37.134Z,99971.61
2017-06-22T08:29:06.211Z,99971.06
2017-06-22T08:31:35.274Z,99969.46
2017-06-22T08:34:04.337Z,99961.33
2017-06-22T08:36:33.415Z,99964.15
2017-06-22T08:39:02.436Z,99953.58
2017-06-22T08:41:31.497Z,99956.52
2017-06-22T08:44:00.576Z,99957.27
2017-06-22T08:46:29.628Z,99954.81
2017-06-22T08:48:58.715Z,99952.00
2017-06-22T08:51:27.767Z,99958.86
2017-06-22T08:53:56.839Z,99956.14
2017-06-22T08:56:25.932Z,99950.02
2017-06-22T08:58:54.996Z,99948.41
2017-06-22T09:01:24.099Z,99940.72
2017-06-22T09:03:53.156Z,99937.59
2017-06-22T09:06:23.856Z,99931.94
2017-06-22T09:08:52.908Z,99932.59
2017-06-22T09:11:22.227Z,99919.73
2017-06-22T09:13:51.335Z,99914.03
2017-06-22T09:16:20.524Z,99915.63
2017-06-22T09:18:49.592Z,99912.14
2017-06-22T09:21:18.655Z,99915.88
2017-06-22T09:23:47.717Z,99913.66
2017-06-22T09:26:16.779Z,99907.31
2017-06-22T09:28:45.835Z,99910.77
2017-06-22T09:31:14.921Z,99913.16
2017-06-22T09:33:43.980Z,99902.61
2017-06-22T09:36:13.036Z,99905.70
2017-06-22T09:38:43.116Z,99905.05
2017-06-22T09:41:12.175Z,99905.64
2017-06-22T09:43:41.212Z,99904.66
2017-06-22T09:46:10.509Z,99905.77
2017-06-22T09:48:39.568Z,99917.51
2017-06-22T09:51:08.709Z,99906.25
2017-06-22T09:53:37.736Z,99906.73
2017-06-22T09:56:06.824Z,99910.33
2017-06-22T09:58:35.934Z,99894.47
2017-06-22T10:01:04.979Z,99891.20
2017-06-22T10:03:34.064Z,99887.02
2017-06-22T10:06:03.123Z,99877.56
2017-06-22T10:08:32.184Z,99874.65
2017-06-22T10:11:01.270Z,99886.02
2017-06-22T10:13:30.328Z,99877.88
2017-06-22T10:15:59.505Z,99884.63
2017-06-22T10:18:28.581Z,99883.23
2017-06-22T10:20:57.644Z,99877.63
2017-06-22T10:23:26.700Z,99872.55
2017-06-22T10:25:55.779Z,99876.25
2017-06-22T10:28:24.832Z,99874.49
2017-06-22T10:30:53.891Z,99871.02
2017-06-22T10:33:22.981Z,99870.50
2017-06-22T10:35:52.065Z,99865.20
2017-06-22T10:38:21.106Z,99865.95
2017-06-22T10:40:50.188Z,99861.66
2017-06-22T10:43:19.272Z,99865.85
2017-06-22T10:45:48.335Z,99854.83
2017-06-22T10:48:17.375Z,99857.73
2017-06-22T10:50:46.467Z,99844.95
2017-06-22T10:53:15.531Z,99847.63
2017-06-22T10:55:44.592Z,99841.04
2017-06-22T10:58:13.904Z,99839.17
2017-06-22T11:00:43.013Z,99834.80
2017-06-22T11:03:12.077Z,99839.63
2017-06-22T11:05:41.185Z,99830.27
2017-06-22T11:08:10.250Z,99832.48
2017-06-22T11:10:39.301Z,99822.80
2017-06-22T11:13:08.395Z,99827.45
2017-06-22T11:15:37.455Z,99822.47
2017-06-22T11:18:06.520Z,99818.37
2017-06-22T11:20:35.572Z,99825.39
2017-06-22T11:23:04.692Z,99825.53
2017-06-22T11:25:33.763Z,99820.14
2017-06-22T11:28:02.840Z,99817.83
2017-06-22T11:30:31.897Z,99821.16
2017-06-22T11:33:00.980Z,99820.87
2017-06-22T11:35:30.046Z,99827.14
2017-06-22T11:37:59.092Z,99814.32
2017-06-22T11:40:28.187Z,99810.17
2017-06-22T11:42:57.231Z,99811.59
2017-06-22T11:45:26.305Z,99808.21
2017-06-22T11:47:55.360Z,99803.90
2017-06-22T11:50:24.678Z,99800.40
2017-06-22T11:52:53.736Z,99795.44
2017-06-22T11:55:22.811Z,99795.79
2017-06-22T11:57:51.976Z,99800.52
2017-06-22T12:00:21.029Z,99786.50
2017-06-22T12:02:50.096Z,99783.97
2017-06-22T12:05:19.170Z,99783.36
2017-06-22T12:07:48.249Z,99785.48
2017-06-22T12:10:17.342Z,99772.33
2017-06-22T12:12:46.388Z,99775.67
2017-06-22T12:15:15.480Z,99769.89
2017-06-22T12:17:44.568Z,99767.44
2017-06-22T12:20:13.707Z,99769.27
2017-06-22T12:22:42.739Z,99771.72
2017-06-22T12:25:11.885Z,99766.34
2017-06-22T12:27:40.928Z,99766.22
2017-06-22T12:30:10.084Z,99764.16
2017-06-22T12:32:39.159Z,99751.16
2017-06-22T12:35:08.295Z,99754.73
2017-06-22T12:37:37.336Z,99753.97
2017-06-22T12:40:06.593Z,99746.48
2017-06-22T12:42:35.724Z,99743.66
2017-06-22T12:45:04.808Z,99746.64
2017-06-22T12:47:33.860Z,99738.64
2017-06-22T12:50:02.948Z,99735.81
2017-06-22T12:52:32.001Z,99723.64
2017-06-22T12:55:01.083Z,99729.81
2017-06-22T12:57:30.151Z,99719.78
2017-06-22T12:59:59.243Z,99717.87
2017-06-22T13:02:28.296Z,99711.57
2017-06-22T13:04:57.352Z,99717.36
2017-06-22T13:07:26.425Z,99717.66
2017-06-22T13:09:56.405Z,99712.55
2017-06-22T13:12:25.496Z,99707.27
2017-06-22T13:14:54.564Z,99699.39
2017-06-22T13:17:23.624Z,99699.73
2017-06-22T13:19:52.684Z,99690.69
2017-06-22T13:22:21.745Z,99688.74
2017-06-22T13:24:50.819Z,99696.69
2017-06-22T13:27:19.883Z,99695.51
2017-06-22T13:29:48.944Z,99690.16
2017-06-22T13:32:18.023Z,99685.40
2017-06-22T13:34:47.111Z,99684.39
2017-06-22T13:37:16.226Z,99680.25
2017-06-22T13:39:45.288Z,99673.56
2017-06-22T13:42:14.384Z,99663.81
2017-06-22T13:44:43.677Z,99670.64
2017-06-22T13:47:12.795Z,99664.97
2017-06-22T13:49:41.873Z,99666.13
2017-06-22T13:52:11.016Z,99669.47
2017-06-22T13:54:40.067Z,99651.59
2017-06-22T13:57:09.133Z,99646.70
2017-06-22T13:59:38.212Z,99644.39
2017-06-22T14:02:07.274Z,99643.13
2017-06-22T14:04:36.344Z,99634.89
2017-06-22T14:07:05.403Z,99626.27
2017-06-22T14:09:34.456Z,99627.81
2017-06-22T14:12:03.587Z,99629.63
2017-06-22T14:14:32.611Z,99640.34
2017-06-22T14:17:01.724Z,99634.83
2017-06-22T14:19:30.907Z,99637.02
2017-06-22T14:21:59.958Z,99629.92
2017-06-22T14:27:27.744Z,99631.81
2017-06-22T14:29:56.839Z,99624.72
2017-06-22T14:32:26.538Z,99615.05
2017-06-22T14:34:55.623Z,99610.43
2017-06-22T14:37:24.737Z,99608.35
2017-06-22T14:39:53.787Z,99605.66
2017-06-22T14:42:22.848Z,99605.41
2017-06-22T14:44:51.925Z,99596.41
2017-06-22T14:47:20.997Z,99582.14
2017-06-22T14:49:50.086Z,99582.14
2017-06-22T14:52:19.151Z,99578.92
2017-06-22T14:54:48.984Z,99573.77
2017-06-22T14:57:18.062Z,99568.34
2017-06-22T14:59:47.157Z,99568.09
2017-06-22T15:02:17.011Z,99559.99
2017-06-22T15:04:46.089Z,99544.05
2017-06-22T15:07:15.231Z,99544.95
2017-06-22T15:09:44.289Z,99538.65
2017-06-22T15:12:13.406Z,99538.22
2017-06-22T15:14:42.476Z,99525.09
2017-06-22T15:17:11.554Z,99519.83
2017-06-22T15:19:41.390Z,99515.05
2017-06-22T15:22:10.484Z,99510.95
2017-06-22T15:24:40.592Z,99496.30
2017-06-22T15:27:09.927Z,99506.71
2017-06-22T15:29:39.004Z,99517.75
2017-06-22T15:32:08.381Z,99507.73
2017-06-22T15:34:37.469Z,99514.53
2017-06-22T15:37:06.594Z,99515.06
2017-06-22T15:39:35.644Z,99514.28
2017-06-22T15:42:04.864Z,99511.83
2017-06-22T15:44:33.957Z,99516.82
2017-06-22T15:47:03.751Z,99509.97
2017-06-22T15:49:33.607Z,99503.94
2017-06-22T15:52:02.656Z,99512.67
2017-06-22T15:54:32.273Z,99514.34
2017-06-22T15:57:02.099Z,99517.68
2017-06-22T15:59:31.200Z,99516.59
2017-06-22T16:02:00.279Z,99500.29
2017-06-22T16:04:30.084Z,99502.31
2017-06-22T16:06:59.936Z,99500.75
2017-06-22T16:09:28.976Z,99505.34
2017-06-22T16:11:58.813Z,99506.72
2017-06-22T16:14:27.987Z,99505.70
2017-06-22T16:16:57.808Z,99507.33
2017-06-22T16:19:27.687Z,99489.01
2017-06-22T16:21:56.741Z,99482.23
2017-06-22T16:24:26.628Z,99483.28
2017-06-22T16:26:55.711Z,99471.09
2017-06-22T16:29:24.745Z,99477.38
2017-06-22T16:31:53.835Z,99464.64
2017-06-22T16:34:22.912Z,99467.92
2017-06-22T16:36:52.728Z,99464.69
2017-06-22T16:39:21.804Z,99449.63
2017-06-22T16:41:50.889Z,99463.91
2017-06-22T16:44:19.956Z,99480.08
2017-06-22T16:46:50.259Z,99460.75
2017-06-22T16:49:19.384Z,99434.80
2017-06-22T16:51:48.428Z,99462.26
2017-06-22T16:54:17.816Z,99492.84
2017-06-22T16:56:46.873Z,99489.88
2017-06-22T16:59:15.911Z,99536.31
2017-06-22T17:01:45.745Z,99547.69
2017-06-22T17:04:14.911Z,99544.61
2017-06-22T17:06:43.944Z,99544.28
2017-06-22T17:09:13.031Z,99574.95
2017-06-22T17:11:42.119Z,99596.47
2017-06-22T17:14:11.324Z,99623.41
2017-06-22T17:16:40.364Z,99606.30
2017-06-22T17:19:09.460Z,99635.22
2017-06-22T17:21:38.515Z,99576.93
2017-06-22T17:24:07.615Z,99578.97
2017-06-22T17:26:36.684Z,99562.82
2017-06-22T17:29:06.537Z,99552.05
2017-06-22T17:31:35.577Z,99551.17
2017-06-22T17:34:05.423Z,99548.84
2017-06-22T17:36:34.486Z,99558.93
2017-06-22T17:39:04.622Z,99565.30
2017-06-22T17:41:33.687Z,99563.83
2017-06-22T17:44:02.842Z,99553.45
2017-06-22T17:46:31.893Z,99550.20
2017-06-22T17:49:01.499Z,99546.08
2017-06-22T17:51:30.584Z,99530.82
2017-06-22T17:53:59.645Z,99526.73
2017-06-22T17:56:28.960Z,99536.21
2017-06-22T17:58:58.814Z,99545.99
2017-06-22T18:01:28.664Z,99546.58
2017-06-22T18:03:57.717Z,99559.36
2017-06-22T18:06:27.604Z,99592.46
2017-06-22T18:08:56.635Z,99606.13
2017-06-22T18:11:25.701Z,99622.48
2017-06-22T18:13:54.812Z,99628.67
2017-06-22T18:16:24.644Z,99642.45
2017-06-22T18:18:54.485Z,99648.75
2017-06-22T18:21:23.549Z,99649.42
2017-06-22T18:23:52.701Z,99643.13
2017-06-22T18:26:21.752Z,99654.14
2017-06-22T18:28:50.836Z,99683.77
2017-06-22T18:31:19.917Z,99687.48
2017-06-22T18:33:49.869Z,99686.88
2017-06-22T18:36:18.940Z,99693.30
2017-06-22T18:38:48.785Z,99699.91
2017-06-22T18:41:17.873Z,99696.51
2017-06-22T18:43:46.945Z,99695.69
2017-06-22T18:46:16.009Z,99704.01
2017-06-22T18:48:45.097Z,99708.33
2017-06-22T18:51:14.163Z,99721.06
2017-06-22T18:53:43.256Z,99718.47
2017-06-22T18:56:12.354Z,99728.72
2017-06-22T18:58:41.692Z,99735.20
2017-06-22T19:01:10.783Z,99724.97
2017-06-22T19:03:39.851Z,99730.74
2017-06-22T19:06:08.954Z,99735.86
2017-06-22T19:08:37.998Z,99730.27
2017-06-22T19:11:07.852Z,99742.30
2017-06-22T19:13:36.950Z,99744.50
2017-06-22T19:16:06.004Z,99743.84
2017-06-22T19:18:35.078Z,99748.45
2017-06-22T19:21:04.936Z,99747.95
2017-06-22T19:23:33.962Z,99761.09
2017-06-22T19:26:03.327Z,99757.63
2017-06-22T19:28:32.409Z,99757.98
2017-06-22T19:31:01.524Z,99778.89
2017-06-22T19:33:30.596Z,99788.44
2017-06-22T19:36:00.415Z,99788.94
2017-06-22T19:38:29.480Z,99799.53
2017-06-22T19:40:58.521Z,99805.66
2017-06-22T19:43:27.628Z,99813.06
2017-06-22T19:45:56.703Z,99817.09
2017-06-22T19:48:25.775Z,99832.39
2017-06-22T19:50:54.860Z,99838.95
2017-06-22T19:53:24.684Z,99841.98
2017-06-22T19:55:53.768Z,99855.47
2017-06-22T19:58:23.620Z,99856.64
2017-06-22T20:00:52.684Z,99876.00
2017-06-22T20:03:21.764Z,99888.78
2017-06-22T20:05:51.615Z,99889.60
2017-06-22T20:08:20.680Z,99897.97
2017-06-22T20:10:50.518Z,99892.95
2017-06-22T20:13:19.590Z,99899.77
2017-06-22T20:15:49.451Z,99909.97
2017-06-22T20:18:18.516Z,99906.73
2017-06-22T20:20:47.565Z,99910.77
2017-06-22T20:23:16.660Z,99918.16
2017-06-22T20:25:45.716Z,99920.30
2017-06-22T20:28:14.804Z,99923.34
2017-06-22T20:30:43.907Z,99926.06
2017-06-22T20:33:12.976Z,99930.15
2017-06-22T20:35:42.056Z,99932.39
2017-06-22T20:38:11.901Z,99925.52
2017-06-22T20:40:41.712Z,99924.80
2017-06-22T20:43:11.178Z,99927.59
2017-06-22T20:45:40.247Z,99928.25
2017-06-22T20:48:09.608Z,99937.80
2017-06-22T20:50:39.424Z,99938.61
2017-06-22T20:53:08.495Z,99944.98
2017-06-22T20:55:38.325Z,99939.10
2017-06-22T20:58:07.504Z,99935.92
2017-06-22T21:00:37.284Z,99944.05
2017-06-22T21:03:06.576Z,99936.14
2017-06-22T21:05:35.928Z,99938.50
2017-06-22T21:08:05.099Z,99940.52
2017-06-22T21:10:34.297Z,99952.39
2017-06-22T21:13:03.510Z,99943.14
2017-06-22T21:15:32.553Z,99941.16
2017-06-22T21:18:01.653Z,99944.51
2017-06-22T21:20:30.740Z,99939.80
2017-06-22T21:23:00.216Z,99945.52
2017-06-22T21:25:29.280Z,99941.58
2017-06-22T21:27:59.924Z,99957.53
2017-06-22T21:30:29.916Z,99949.03
2017-06-22T21:32:59.003Z,99958.89
2017-06-22T21:35:28.082Z,99961.66
2017-06-22T21:37:57.133Z,99965.86
2017-06-22T21:40:26.213Z,99954.39
2017-06-22T21:42:55.264Z,99959.33
2017-06-22T21:45:24.327Z,99961.70
2017-06-22T21:47:53.399Z,99960.69
2017-06-22T21:50:23.212Z,99963.67
2017-06-22T21:52:53.047Z,99983.45
2017-06-22T21:55:22.339Z,99982.45
2017-06-22T21:57:51.398Z,99992.94
2017-06-22T22:00:20.501Z,99993.48
2017-06-22T22:02:50.337Z,100000.42
2017-06-22T22:05:19.454Z,100000.22
2017-06-22T22:07:49.273Z,100006.95
2017-06-22T22:10:18.345Z,100007.91
2017-06-22T22:12:47.409Z,100001.22
2017-06-22T22:15:16.475Z,100008.98
2017-06-22T22:17:45.619Z,100011.36
2017-06-22T22:20:14.951Z,100015.48
2017-06-22T22:22:44.020Z,100013.91
2017-06-22T22:25:13.137Z,100017.28
2017-06-22T22:27:42.212Z,100034.33
2017-06-22T22:30:11.316Z,100036.78
2017-06-22T22:32:40.666Z,100026.97
2017-06-22T22:35:09.736Z,100029.77
2017-06-22T22:37:38.814Z,100028.19
2017-06-22T22:40:08.000Z,100025.59
2017-06-22T22:42:37.831Z,100025.22
2017-06-22T22:45:07.166Z,100028.60
2017-06-22T22:47:36.250Z,100028.23
2017-06-22T22:50:05.329Z,100043.26
2017-06-22T22:52:34.407Z,100044.44
2017-06-22T22:55:03.517Z,100046.45
2017-06-22T22:57:32.566Z,100048.24
2017-06-22T23:00:02.429Z,100047.23
2017-06-22T23:02:31.501Z,100043.28
2017-06-22T23:05:00.583Z,100052.77
2017-06-22T23:07:29.665Z,100058.34
2017-06-22T23:09:58.729Z,100061.94
2017-06-22T23:12:27.823Z,100065.30
2017-06-22T23:14:56.873Z,100067.89
2017-06-22T23:17:26.687Z,100073.22
2017-06-22T23:19:55.773Z,100072.05
2017-06-22T23:22:24.852Z,100074.41
2017-06-22T23:24:53.915Z,100080.34
2017-06-22T23:27:22.988Z,100073.05
2017-06-22T23:29:52.031Z,100088.27
2017-06-22T23:32:21.127Z,100081.53
2017-06-22T23:34:50.191Z,100084.70
2017-06-22T23:37:19.251Z,100088.67
2017-06-22T23:39:48.324Z,100099.33
2017-06-22T23:42:18.156Z,100082.55
2017-06-22T23:44:47.275Z,100073.67
2017-06-22T23:47:16.704Z,100082.77
2017-06-22T23:49:45.770Z,100088.05
2017-06-22T23:52:14.909Z,100089.23
2017-06-22T23:54:43.980Z,100091.20
2017-06-22T23:57:13.085Z,100088.84
2017-06-22T23:59:42.174Z,100083.90
